Time;durP1;ratioP1;P1;durP2;ratioP2;P2;SDS_P1;SDS_P2;PMS_P1;PMS_P2;Temp;Humidity;BMP_temperature;BMP_pressure;BME280_temperature;BME280_humidity;BME280_pressure;Samples;Min_cycle;Max_cycle;Signal;HPM_P1;HPM_P2
2022/04/21 00:00:25;;;;;;;10.80;5.83;;;;;9.20;100736.00;;;;10573243;27;20699;-76
2022/04/21 00:05:28;;;;;;;8.40;5.50;;;;;9.00;100733.00;;;;10607532;27;20199;-76
2022/04/21 00:10:30;;;;;;;11.13;5.53;;;;;8.80;100726.00;;;;10572999;27;20211;-77
2022/04/21 00:15:32;;;;;;;8.90;5.10;;;;;8.80;100723.00;;;;10573502;27;20554;-77
2022/04/21 00:20:34;;;;;;;13.13;6.00;;;;;8.70;100731.00;;;;10572393;27;20268;-77
2022/04/21 00:25:37;;;;;;;9.80;5.43;;;;;8.60;100720.00;;;;10530000;28;20245;-76
2022/04/21 00:30:40;;;;;;;9.00;5.50;;;;;8.50;100719.00;;;;10547078;28;20184;-76
2022/04/21 00:35:42;;;;;;;8.67;5.93;;;;;8.50;100732.00;;;;10513309;28;20196;-77
2022/04/21 00:40:44;;;;;;;7.77;6.07;;;;;8.40;100715.00;;;;10529534;28;20671;-77
2022/04/21 00:45:47;;;;;;;10.80;5.60;;;;;8.30;100718.00;;;;10529913;28;20196;-76
2022/04/21 00:50:49;;;;;;;10.77;5.30;;;;;8.20;100720.00;;;;10532329;27;20203;-76
2022/04/21 00:55:52;;;;;;;9.93;5.90;;;;;8.10;100712.00;;;;10548578;27;20532;-76
2022/04/21 01:00:55;;;;;;;13.57;6.30;;;;;8.00;100725.00;;;;10562828;28;20204;-76
2022/04/21 01:05:57;;;;;;;10.27;6.10;;;;;8.00;100722.00;;;;10545252;28;20199;-76
2022/04/21 01:10:59;;;;;;;7.73;5.57;;;;;7.90;100724.00;;;;10528805;28;20597;-76
2022/04/21 01:16:01;;;;;;;9.87;5.93;;;;;7.80;100726.00;;;;10528629;28;20193;-77
2022/04/21 01:21:03;;;;;;;8.43;5.80;;;;;7.80;100714.00;;;;10548791;27;20239;-77
2022/04/21 01:26:05;;;;;;;11.77;6.73;;;;;7.70;100715.00;;;;10531143;27;20200;-77
2022/04/21 01:31:07;;;;;;;8.93;5.90;;;;;7.70;100713.00;;;;10542102;28;20187;-77
2022/04/21 01:36:09;;;;;;;10.87;6.40;;;;;7.70;100713.00;;;;10511696;28;20184;-77
2022/04/21 01:41:11;;;;;;;11.00;6.47;;;;;7.70;100701.00;;;;10511410;28;20303;-77
2022/04/21 01:46:13;;;;;;;9.83;6.37;;;;;7.70;100703.00;;;;10527748;28;20303;-76
2022/04/21 01:51:15;;;;;;;9.67;6.47;;;;;7.60;100706.00;;;;10526977;28;20188;-77
2022/04/21 01:56:17;;;;;;;9.20;6.37;;;;;7.60;100703.00;;;;10527663;28;20196;-76
2022/04/21 02:01:19;;;;;;;6.80;6.10;;;;;7.50;100707.00;;;;10511116;28;20210;-76
2022/04/21 02:06:21;;;;;;;8.77;6.00;;;;;7.40;100703.00;;;;10561048;28;20196;-76
2022/04/21 02:11:24;;;;;;;10.67;6.27;;;;;7.40;100707.00;;;;10568860;28;20241;-76
2022/04/21 02:16:26;;;;;;;14.63;6.27;;;;;7.20;100711.00;;;;10535801;28;20181;-76
2022/04/21 02:21:28;;;;;;;8.17;6.47;;;;;7.10;100699.00;;;;10543313;27;20211;-77
2022/04/21 02:26:30;;;;;;;11.87;6.17;;;;;7.00;100703.00;;;;10594325;27;20188;-76
2022/04/21 02:31:31;;;;;;;7.33;6.33;;;;;6.90;100697.00;;;;10534976;28;20192;-77
2022/04/21 02:36:33;;;;;;;8.30;6.17;;;;;6.90;100694.00;;;;10534766;28;20242;-76
2022/04/21 02:41:35;;;;;;;11.20;7.23;;;;;6.80;100703.00;;;;10534238;28;20216;-76
2022/04/21 02:46:37;;;;;;;9.57;7.30;;;;;6.70;100706.00;;;;10516748;28;20616;-76
2022/04/21 02:51:39;;;;;;;11.33;7.87;;;;;6.60;100691.00;;;;10550310;28;20590;-77
2022/04/21 03:02:02;;;;;;;9.67;7.20;;;;;6.50;100697.00;;;;10534701;28;20204;-76
2022/04/21 03:07:04;;;;;;;9.90;7.10;;;;;6.40;100702.00;;;;10533664;28;20202;-78
2022/04/21 03:12:08;;;;;;;11.47;7.60;;;;;6.30;100690.00;;;;10534511;28;20196;-76
2022/04/21 03:17:10;;;;;;;10.23;7.73;;;;;6.20;100702.00;;;;10532379;28;20196;-76
2022/04/21 03:27:34;;;;;;;13.10;7.93;;;;;6.10;100697.00;;;;10566730;27;20196;-76
2022/04/21 03:32:36;;;;;;;13.37;8.40;;;;;6.10;100700.00;;;;10515093;28;20200;-76
2022/04/21 03:37:38;;;;;;;13.20;7.80;;;;;6.10;100711.00;;;;10547568;28;20257;-76
2022/04/21 03:42:40;;;;;;;10.73;8.40;;;;;6.10;100707.00;;;;10530482;28;20616;-75
2022/04/21 03:47:42;;;;;;;10.73;7.87;;;;;6.10;100712.00;;;;10531269;28;20204;-76
2022/04/21 03:52:44;;;;;;;11.50;8.60;;;;;6.00;100702.00;;;;10534223;27;20642;-77
2022/04/21 03:57:46;;;;;;;8.90;7.83;;;;;5.90;100704.00;;;;10574436;27;20195;-78
2022/04/21 04:02:47;;;;;;;11.53;8.43;;;;;5.90;100703.00;;;;10595411;27;20254;-79
2022/04/21 04:13:16;;;;;;;12.07;8.83;;;;;5.80;100694.00;;;;10530603;28;20216;-77
2022/04/21 04:18:19;;;;;;;13.03;8.33;;;;;5.80;100692.00;;;;10546626;28;20202;-77
2022/04/21 04:23:22;;;;;;;14.43;9.03;;;;;5.80;100686.00;;;;10569911;27;20730;-76
2022/04/21 04:28:25;;;;;;;12.23;8.57;;;;;5.80;100693.00;;;;10571053;27;20228;-77
2022/04/21 04:33:27;;;;;;;12.03;9.37;;;;;5.70;100694.00;;;;10512357;28;20215;-76
2022/04/21 04:38:28;;;;;;;11.00;9.27;;;;;5.80;100696.00;;;;10532053;28;20200;-78
2022/04/21 04:43:30;;;;;;;12.47;9.17;;;;;5.80;100694.00;;;;10513803;28;20209;-77
2022/04/21 04:48:32;;;;;;;12.10;9.20;;;;;5.90;100695.00;;;;10514883;28;20205;-78
2022/04/21 04:53:34;;;;;;;13.97;10.43;;;;;6.00;100700.00;;;;10506836;28;20250;-78
2022/04/21 04:58:36;;;;;;;12.30;9.90;;;;;6.20;100699.00;;;;10515404;28;20601;-78
2022/04/21 05:03:39;;;;;;;12.10;9.33;;;;;6.40;100700.00;;;;10531962;28;20204;-78
2022/04/21 05:08:41;;;;;;;11.07;9.30;;;;;6.70;100698.00;;;;10511975;28;20638;-76
2022/04/21 05:13:44;;;;;;;15.90;10.50;;;;;6.90;100713.00;;;;10545164;28;20870;-77
2022/04/21 05:18:46;;;;;;;15.57;9.87;;;;;7.20;100704.00;;;;10545340;28;20665;-77
2022/04/21 05:23:48;;;;;;;12.20;9.27;;;;;7.60;100705.00;;;;10544659;28;20272;-76
2022/04/21 05:28:51;;;;;;;13.37;9.20;;;;;8.30;100713.00;;;;10545511;28;20684;-76
2022/04/21 05:33:54;;;;;;;11.23;7.97;;;;;8.90;100721.00;;;;10545042;28;20172;-76
2022/04/21 05:38:56;;;;;;;12.67;7.43;;;;;9.10;100727.00;;;;10524594;28;20212;-76
2022/04/21 05:43:59;;;;;;;9.33;8.07;;;;;9.30;100719.00;;;;10491066;28;20213;-77
2022/04/21 05:49:06;;;;;;;10.20;8.10;;;;;9.60;100717.00;;;;10496017;28;20208;-77
2022/04/21 05:54:09;;;;;;;11.50;7.57;;;;;9.90;100713.00;;;;10499852;28;20193;-76
2022/04/21 05:59:10;;;;;;;8.63;7.40;;;;;10.20;100718.00;;;;10536387;28;20203;-77
2022/04/21 06:04:12;;;;;;;8.47;7.20;;;;;10.50;100724.00;;;;10578792;27;20674;-76
2022/04/21 06:09:14;;;;;;;10.83;7.50;;;;;10.90;100721.00;;;;10577363;27;20244;-77
2022/04/21 06:14:16;;;;;;;9.77;7.17;;;;;11.40;100720.00;;;;10594590;27;20196;-76
2022/04/21 06:19:18;;;;;;;9.43;6.87;;;;;11.90;100710.00;;;;10611697;27;20192;-77
2022/04/21 06:24:20;;;;;;;10.73;7.50;;;;;12.30;100714.00;;;;10553347;28;20583;-77
2022/04/21 06:29:22;;;;;;;8.70;6.60;;;;;12.70;100712.00;;;;10576285;27;20199;-76
2022/04/21 06:34:23;;;;;;;11.07;6.70;;;;;12.90;100707.00;;;;10573881;28;20200;-77
2022/04/21 06:39:25;;;;;;;13.07;6.33;;;;;13.30;100707.00;;;;10551164;28;20753;-77
2022/04/21 06:49:47;;;;;;;8.10;6.17;;;;;13.90;100713.00;;;;10567507;28;20196;-77
2022/04/21 06:54:50;;;;;;;8.13;6.90;;;;;14.20;100717.00;;;;10567277;28;20204;-77
2022/04/21 06:59:51;;;;;;;10.00;6.47;;;;;14.60;100722.00;;;;10542570;28;20254;-77
2022/04/21 07:04:53;;;;;;;7.27;5.70;;;;;14.90;100725.00;;;;10599340;27;20196;-77
2022/04/21 07:09:56;;;;;;;9.00;6.47;;;;;15.30;100726.00;;;;10592913;27;20184;-77
2022/04/21 07:15:03;;;;;;;11.90;6.63;;;;;15.60;100730.00;;;;10592968;27;20195;-77
2022/04/21 07:20:07;;;;;;;9.57;5.70;;;;;15.70;100736.00;;;;10625973;27;20207;-78
2022/04/21 07:25:09;;;;;;;9.07;5.37;;;;;16.00;100734.00;;;;10527718;28;20280;-76
2022/04/21 07:30:12;;;;;;;6.37;4.90;;;;;16.30;100730.00;;;;10507987;28;20227;-77
2022/04/21 07:35:15;;;;;;;5.93;5.33;;;;;16.70;100722.00;;;;10507433;28;20200;-77
2022/04/21 07:40:19;;;;;;;5.53;4.23;;;;;17.00;100721.00;;;;10523412;28;20212;-77
2022/04/21 07:45:21;;;;;;;7.90;4.60;;;;;17.00;100721.00;;;;10541013;28;20242;-77
2022/04/21 07:50:24;;;;;;;7.03;4.43;;;;;17.20;100715.00;;;;10512851;28;20196;-77
2022/04/21 07:55:47;;;;;;;7.05;4.15;;;;;17.40;100712.00;;;;10498231;28;20208;-77
2022/04/21 08:00:49;;;;;;;6.10;3.65;;;;;17.70;100707.00;;;;10547832;28;20236;-77
2022/04/21 08:05:51;;;;;;;5.60;4.18;;;;;17.80;100704.00;;;;10564347;28;20242;-77
2022/04/21 08:10:52;;;;;;;7.80;3.63;;;;;18.10;100707.00;;;;10514972;28;20203;-77
2022/04/21 08:15:54;;;;;;;7.18;3.33;;;;;18.40;100709.00;;;;10531590;28;20188;-77
2022/04/21 08:20:58;;;;;;;7.68;3.63;;;;;18.80;100706.00;;;;10551345;27;20666;-78
2022/04/21 08:37:01;;;;;;;4.03;3.30;;;;;19.90;100695.00;;;;10506208;28;20245;-79
2022/04/21 08:42:10;;;;;;;4.72;3.53;;;;;19.70;100694.00;;;;10489182;28;20751;-77
2022/04/21 08:47:18;;;;;;;3.80;3.38;;;;;19.90;100703.00;;;;10494441;28;20208;-78
2022/04/21 08:52:20;;;;;;;4.60;3.13;;;;;19.90;100692.00;;;;10561891;27;20650;-77
2022/04/21 08:57:22;;;;;;;6.63;3.25;;;;;20.00;100700.00;;;;10588487;27;20191;-77
2022/04/21 09:02:39;;;;;;;5.55;3.40;;;;;20.30;100689.00;;;;10577585;27;20204;-77
2022/04/21 09:07:48;;;;;;;6.88;3.80;;;;;20.50;100684.00;;;;10513213;28;20189;-76
2022/04/21 09:13:10;;;;;;;5.00;4.10;;;;;20.30;100692.00;;;;10563320;28;20279;-77
2022/04/21 09:18:14;;;;;;;8.05;3.83;;;;;20.60;100692.00;;;;10529008;28;20192;-77
2022/04/21 09:23:15;;;;;;;4.30;3.42;;;;;21.00;100693.00;;;;10568525;27;20360;-76
2022/04/21 09:28:26;;;;;;;5.97;4.13;;;;;21.30;100680.00;;;;10589432;27;20634;-77
2022/04/21 09:33:33;;;;;;;7.28;3.80;;;;;21.80;100676.00;;;;10516593;28;20564;-77
2022/04/21 09:38:35;;;;;;;4.88;3.42;;;;;21.70;100678.00;;;;10504002;28;20262;-76
2022/04/21 09:43:38;;;;;;;4.80;3.70;;;;;21.80;100670.00;;;;10537205;28;20216;-76
2022/04/21 09:48:41;;;;;;;5.20;3.80;;;;;21.90;100665.00;;;;10537742;28;20189;-77
2022/04/21 09:53:51;;;;;;;8.25;3.85;;;;;21.80;100666.00;;;;10557394;28;20192;-79
2022/04/21 09:58:53;;;;;;;4.60;3.83;;;;;21.60;100657.00;;;;10523126;28;20249;-76
2022/04/21 10:03:56;;;;;;;6.38;4.10;;;;;21.60;100655.00;;;;10561675;28;20670;-77
2022/04/21 10:08:58;;;;;;;6.13;3.28;;;;;22.00;100645.00;;;;10561892;28;20218;-76
2022/04/21 10:14:01;;;;;;;5.80;4.30;;;;;22.50;100644.00;;;;10562544;28;20184;-77
2022/04/21 10:19:03;;;;;;;7.72;4.00;;;;;22.80;100636.00;;;;10545315;28;20193;-77
2022/04/21 10:24:06;;;;;;;5.47;3.67;;;;;22.60;100634.00;;;;10591836;28;20208;-77
2022/04/21 10:29:12;;;;;;;6.18;4.22;;;;;23.10;100625.00;;;;10572830;28;20201;-76
2022/04/21 10:34:32;;;;;;;3.70;3.17;;;;;23.10;100614.00;;;;10515959;28;20185;-76
2022/04/21 10:39:35;;;;;;;5.18;3.20;;;;;23.40;100597.00;;;;10522514;28;20208;-76
2022/04/21 10:44:47;;;;;;;7.53;3.95;;;;;23.80;100610.00;;;;10517677;28;20258;-76
2022/04/21 10:49:56;;;;;;;3.45;3.15;;;;;23.90;100606.00;;;;10511658;28;20311;-76
2022/04/21 11:00:27;;;;;;;4.82;3.80;;;;;24.10;100603.00;;;;10559435;28;20289;-76
2022/04/21 11:05:34;;;;;;;5.78;3.92;;;;;24.10;100592.00;;;;10557484;27;20249;-76
2022/04/21 11:10:39;;;;;;;4.85;3.25;;;;;24.20;100587.00;;;;10577898;28;20251;-76
2022/04/21 11:15:44;;;;;;;5.07;3.35;;;;;24.60;100580.00;;;;10563510;27;20195;-76
2022/04/21 11:20:49;;;;;;;4.97;2.97;;;;;24.40;100576.00;;;;10524241;28;20265;-77
2022/04/21 11:25:52;;;;;;;3.47;3.17;;;;;24.10;100562.00;;;;10529394;28;20196;-77
2022/04/21 11:30:58;;;;;;;4.47;2.95;;;;;24.40;100563.00;;;;10532974;28;20243;-77
2022/04/21 11:36:07;;;;;;;4.97;2.78;;;;;24.20;100553.00;;;;10565129;28;20194;-77
2022/04/21 11:41:10;;;;;;;4.18;3.40;;;;;24.20;100548.00;;;;10530847;28;20341;-77
2022/04/21 11:46:15;;;;;;;3.47;2.75;;;;;24.30;100541.00;;;;10563123;27;20686;-77
2022/04/21 11:51:24;;;;;;;4.45;3.10;;;;;24.20;100544.00;;;;10545320;28;20643;-77
2022/04/21 11:56:27;;;;;;;6.40;2.72;;;;;24.00;100543.00;;;;10561134;28;20203;-76
2022/04/21 12:06:51;;;;;;;6.40;2.50;;;;;25.10;100523.00;;;;10562630;28;20198;-77
2022/04/21 12:11:57;;;;;;;4.05;2.78;;;;;25.10;100522.00;;;;10553703;27;20587;-78
2022/04/21 12:17:01;;;;;;;5.20;2.65;;;;;24.70;100506.00;;;;10564100;28;20255;-77
2022/04/21 12:22:06;;;;;;;5.55;2.30;;;;;24.60;100519.00;;;;10546153;27;20203;-76
2022/04/21 12:27:19;;;;;;;4.28;2.80;;;;;24.60;100505.00;;;;10554351;28;20304;-77
2022/04/21 12:32:26;;;;;;;4.38;2.50;;;;;24.80;100498.00;;;;10557053;27;20188;-77
2022/04/21 12:37:30;;;;;;;4.05;2.40;;;;;25.00;100493.00;;;;10536083;27;20210;-77
2022/04/21 12:42:33;;;;;;;2.65;2.13;;;;;25.00;100490.00;;;;10563935;28;20269;-78
2022/04/21 12:47:46;;;;;;;3.88;1.90;;;;;24.80;100493.00;;;;10509888;28;20682;-77
2022/04/21 12:52:53;;;;;;;2.53;2.10;;;;;25.20;100472.00;;;;10530350;27;20226;-78
2022/04/21 12:58:11;;;;;;;2.40;2.17;;;;;24.90;100471.00;;;;10533723;28;20192;-77
2022/04/21 13:03:14;;;;;;;3.22;2.13;;;;;24.60;100474.00;;;;10538474;27;20209;-76
2022/04/21 13:08:22;;;;;;;2.45;2.25;;;;;25.00;100458.00;;;;10502703;28;20197;-76
2022/04/21 13:13:26;;;;;;;2.80;2.42;;;;;24.90;100462.00;;;;10556897;28;20188;-76
2022/04/21 13:18:30;;;;;;;3.67;2.20;;;;;25.10;100460.00;;;;10557573;27;20520;-76
2022/04/21 13:23:32;;;;;;;5.30;2.58;;;;;25.70;100452.00;;;;10554406;27;20616;-76
2022/04/21 13:28:34;;;;;;;3.28;2.08;;;;;26.50;100437.00;;;;10551434;28;20593;-77
2022/04/21 13:33:37;;;;;;;5.45;2.50;;;;;27.60;100441.00;;;;10545053;28;20631;-77
2022/04/21 13:38:38;;;;;;;4.00;2.50;;;;;29.40;100427.00;;;;10505743;28;20278;-78
2022/04/21 13:43:40;;;;;;;6.00;1.98;;;;;30.60;100419.00;;;;10520483;28;20224;-77
2022/04/21 13:49:03;;;;;;;2.50;1.85;;;;;31.10;100422.00;;;;10548467;28;20201;-77
2022/04/21 13:54:06;;;;;;;5.55;1.83;;;;;28.70;100415.00;;;;10508743;28;20241;-78
2022/04/21 13:59:11;;;;;;;2.05;1.45;;;;;31.10;100388.00;;;;10542550;28;20185;-78
2022/04/21 14:04:13;;;;;;;3.65;1.70;;;;;31.90;100391.00;;;;10530291;27;20195;-77
2022/04/21 14:09:15;;;;;;;5.95;1.90;;;;;32.70;100390.00;;;;10534205;28;20224;-77
2022/04/21 14:14:17;;;;;;;2.67;1.63;;;;;32.80;100388.00;;;;10527227;28;20596;-76
2022/04/21 14:19:19;;;;;;;4.07;2.00;;;;;32.70;100379.00;;;;10553447;27;20615;-77
2022/04/21 14:24:21;;;;;;;2.15;1.70;;;;;32.50;100371.00;;;;10539874;28;20239;-77
2022/04/21 14:29:23;;;;;;;3.50;1.38;;;;;32.70;100368.00;;;;10541726;28;20245;-78
2022/04/21 14:34:25;;;;;;;1.83;1.60;;;;;32.70;100353.00;;;;10502402;28;20189;-77
2022/04/21 14:44:48;;;;;;;2.85;1.50;;;;;34.00;100346.00;;;;10536617;27;20205;-77
2022/04/21 14:49:50;;;;;;;3.40;1.80;;;;;33.80;100348.00;;;;10547823;28;20219;-76
2022/04/21 14:54:53;;;;;;;3.55;2.22;;;;;33.50;100340.00;;;;10531804;28;20188;-77
2022/04/21 14:59:55;;;;;;;5.38;2.10;;;;;33.50;100346.00;;;;10546693;28;20196;-76
2022/04/21 15:04:56;;;;;;;2.17;1.70;;;;;33.10;100334.00;;;;10580222;27;20204;-76
2022/04/21 15:09:58;;;;;;;3.72;1.70;;;;;30.00;100353.00;;;;10541976;28;20200;-77
2022/04/21 15:15:02;;;;;;;3.53;1.92;;;;;25.40;100345.00;;;;10574891;27;20274;-76
2022/04/21 15:20:04;;;;;;;3.55;2.13;;;;;23.50;100340.00;;;;10562730;28;20227;-77
2022/04/21 15:25:08;;;;;;;5.68;2.10;;;;;22.70;100335.00;;;;10558485;28;20204;-77
2022/04/21 15:30:10;;;;;;;2.13;1.85;;;;;22.90;100335.00;;;;10538782;28;20221;-77
2022/04/21 15:35:13;;;;;;;6.07;1.85;;;;;22.60;100335.00;;;;10559223;28;20599;-77
2022/04/21 15:40:15;;;;;;;3.97;1.60;;;;;23.10;100345.00;;;;10541456;28;20208;-77
2022/04/21 15:45:16;;;;;;;4.60;2.00;;;;;24.80;100341.00;;;;10535310;28;20192;-79
2022/04/21 15:50:18;;;;;;;9.32;2.60;;;;;24.70;100346.00;;;;10557376;28;20265;-79
2022/04/21 16:00:41;;;;;;;5.65;2.80;;;;;23.90;100338.00;;;;10566360;27;20196;-78
2022/04/21 16:05:43;;;;;;;5.18;3.17;;;;;22.90;100350.00;;;;10509892;28;20581;-79
2022/04/21 16:10:45;;;;;;;6.97;2.95;;;;;22.00;100353.00;;;;10535744;28;20185;-77
2022/04/21 16:15:47;;;;;;;3.55;3.00;;;;;21.30;100351.00;;;;10543707;28;20234;-76
2022/04/21 16:20:49;;;;;;;4.15;3.55;;;;;20.40;100356.00;;;;10539111;27;20196;-77
2022/04/21 16:25:51;;;;;;;5.85;3.53;;;;;19.90;100363.00;;;;10525606;28;20267;-77
2022/04/21 16:30:53;;;;;;;5.32;3.28;;;;;19.70;100348.00;;;;10529907;28;20193;-76
2022/04/21 16:35:55;;;;;;;7.10;3.75;;;;;19.20;100340.00;;;;10520123;28;20188;-77
2022/04/21 16:40:57;;;;;;;5.70;3.20;;;;;18.70;100342.00;;;;10558582;28;20248;-77
2022/04/21 16:45:59;;;;;;;6.25;3.30;;;;;18.40;100347.00;;;;10496692;28;20189;-77
2022/04/21 16:51:02;;;;;;;7.82;3.65;;;;;18.10;100343.00;;;;10506999;27;20214;-78
2022/04/21 16:56:04;;;;;;;6.95;3.20;;;;;18.10;100338.00;;;;10539184;28;20222;-77
2022/04/21 17:06:31;;;;;;;8.90;3.70;;;;;18.40;100341.00;;;;10523334;27;20187;-81
2022/04/21 17:11:33;;;;;;;7.22;4.10;;;;;18.30;100350.00;;;;10530490;28;20198;-79
2022/04/21 17:16:35;;;;;;;9.85;4.45;;;;;18.00;100348.00;;;;10503200;28;20181;-78
2022/04/21 17:21:38;;;;;;;6.20;3.40;;;;;17.70;100353.00;;;;10555354;27;20260;-77
2022/04/21 17:26:40;;;;;;;4.97;3.50;;;;;17.50;100352.00;;;;10519785;27;20278;-79
2022/04/21 17:31:41;;;;;;;6.10;3.33;;;;;17.20;100351.00;;;;10574985;27;20191;-77
2022/04/21 17:36:44;;;;;;;9.70;4.33;;;;;17.10;100353.00;;;;10584500;27;20248;-77
2022/04/21 17:41:46;;;;;;;7.67;4.00;;;;;17.00;100356.00;;;;10586064;28;20211;-78
2022/04/21 17:46:48;;;;;;;5.07;3.13;;;;;16.80;100343.00;;;;10576224;28;20204;-78
2022/04/21 17:51:50;;;;;;;4.40;3.10;;;;;16.70;100350.00;;;;10519219;28;20211;-77
2022/04/21 17:56:52;;;;;;;4.70;3.20;;;;;16.60;100349.00;;;;10515813;28;20269;-78
2022/04/21 18:01:54;;;;;;;4.57;3.13;;;;;16.40;100348.00;;;;10527626;28;20212;-78
2022/04/21 18:06:56;;;;;;;11.13;3.17;;;;;16.30;100340.00;;;;10540502;28;20245;-79
2022/04/21 18:11:58;;;;;;;6.77;3.20;;;;;16.20;100344.00;;;;10546298;28;20188;-79
2022/04/21 18:17:00;;;;;;;8.40;3.60;;;;;16.20;100347.00;;;;10490460;28;20237;-79
2022/04/21 18:22:05;;;;;;;6.00;3.10;;;;;16.10;100334.00;;;;10530800;28;20196;-80
2022/04/21 18:27:08;;;;;;;4.67;3.10;;;;;16.20;100347.00;;;;10527551;28;20238;-80
2022/04/21 18:32:10;;;;;;;3.10;2.80;;;;;16.10;100337.00;;;;10512753;28;20191;-80
2022/04/21 18:37:12;;;;;;;6.43;3.10;;;;;16.10;100339.00;;;;10544638;28;20215;-79
2022/04/21 18:42:16;;;;;;;5.10;3.13;;;;;16.00;100334.00;;;;10514275;28;20220;-79
2022/04/21 18:47:20;;;;;;;5.10;2.43;;;;;15.80;100338.00;;;;10539950;28;20203;-78
2022/04/21 18:52:22;;;;;;;6.20;2.80;;;;;15.60;100337.00;;;;10547194;28;20233;-79
2022/04/21 18:58:22;;;;;;;5.63;2.60;;;;;15.50;100344.00;;;;10529560;28;20214;-79
2022/04/21 19:02:45;;;;;;;4.47;2.80;;;;;15.40;100342.00;;;;10527754;28;20209;-79
2022/04/21 19:07:47;;;;;;;4.37;3.20;;;;;15.20;100339.00;;;;10516373;28;20196;-79
2022/04/21 19:12:52;;;;;;;4.40;2.70;;;;;15.10;100343.00;;;;10521174;28;20189;-78
2022/04/21 19:17:54;;;;;;;7.13;3.93;;;;;15.00;100346.00;;;;10554158;27;20196;-78
2022/04/21 19:22:56;;;;;;;7.93;3.87;;;;;14.80;100348.00;;;;10545044;28;20260;-78
2022/04/21 19:28:01;;;;;;;5.13;3.90;;;;;14.70;100346.00;;;;10506184;28;20197;-78
2022/04/21 19:33:03;;;;;;;6.97;4.67;;;;;14.60;100349.00;;;;10552511;28;20238;-78
2022/04/21 19:38:05;;;;;;;8.20;3.90;;;;;14.50;100347.00;;;;10551246;28;20184;-78
2022/04/21 19:43:08;;;;;;;9.70;4.27;;;;;14.40;100346.00;;;;10549838;28;20212;-79
2022/04/21 19:48:10;;;;;;;7.40;5.40;;;;;14.30;100357.00;;;;10586067;28;20185;-78
2022/04/21 19:53:12;;;;;;;5.70;4.60;;;;;14.20;100345.00;;;;10528783;28;20200;-79
2022/04/21 19:58:14;;;;;;;12.17;5.80;;;;;14.10;100345.00;;;;10530313;28;20680;-78
2022/04/21 20:03:16;;;;;;;7.00;5.10;;;;;14.00;100349.00;;;;10545746;28;20204;-80
2022/04/21 20:13:38;;;;;;;10.50;5.97;;;;;13.90;100348.00;;;;10550362;28;20267;-79
2022/04/21 20:18:43;;;;;;;8.37;5.50;;;;;13.80;100338.00;;;;10550466;28;20646;-79
2022/04/21 20:23:45;;;;;;;8.10;5.37;;;;;13.70;100326.00;;;;10555567;27;20204;-79
2022/04/21 20:28:48;;;;;;;8.10;5.13;;;;;13.70;100332.00;;;;10534061;28;20654;-79
2022/04/21 20:33:50;;;;;;;10.10;5.53;;;;;13.70;100325.00;;;;10550239;28;20180;-78
2022/04/21 20:38:53;;;;;;;8.93;5.03;;;;;13.60;100317.00;;;;10515978;28;20223;-78
2022/04/21 20:43:54;;;;;;;12.87;5.60;;;;;13.50;100312.00;;;;10551184;28;20212;-79
2022/04/21 20:48:56;;;;;;;6.73;5.10;;;;;13.40;100320.00;;;;10517008;28;20200;-78
2022/04/21 20:53:58;;;;;;;7.70;5.97;;;;;13.20;100317.00;;;;10517928;28;20214;-79
2022/04/21 20:59:00;;;;;;;11.80;5.10;;;;;13.10;100317.00;;;;10533425;28;20195;-78
2022/04/21 21:04:02;;;;;;;5.97;5.37;;;;;13.00;100307.00;;;;10540241;28;20670;-78
2022/04/21 21:09:04;;;;;;;10.53;5.47;;;;;13.00;100304.00;;;;10533844;28;20196;-79
2022/04/21 21:14:06;;;;;;;6.67;5.13;;;;;13.10;100304.00;;;;10533880;28;20196;-79
2022/04/21 21:19:11;;;;;;;7.03;4.97;;;;;13.20;100295.00;;;;10548384;28;20188;-79
2022/04/21 21:24:13;;;;;;;8.30;5.47;;;;;13.30;100291.00;;;;10563779;27;20220;-79
2022/04/21 21:29:15;;;;;;;8.40;4.70;;;;;13.40;100288.00;;;;10533667;28;20196;-79
2022/04/21 21:34:18;;;;;;;8.50;5.03;;;;;13.40;100288.00;;;;10549159;28;20188;-79
2022/04/21 21:39:19;;;;;;;6.67;4.47;;;;;13.40;100291.00;;;;10531788;28;20215;-79
2022/04/21 21:44:21;;;;;;;7.73;4.83;;;;;13.30;100291.00;;;;10548615;28;20212;-79
2022/04/21 21:54:44;;;;;;;8.03;4.10;;;;;13.40;100282.00;;;;10593382;28;20243;-79
2022/04/21 21:59:46;;;;;;;8.97;5.20;;;;;13.50;100290.00;;;;10516938;28;20223;-79
2022/04/21 22:04:49;;;;;;;6.23;4.33;;;;;13.60;100284.00;;;;10516593;28;20204;-79
2022/04/21 22:09:51;;;;;;;6.17;4.67;;;;;13.70;100282.00;;;;10512680;28;20201;-79
2022/04/21 22:14:53;;;;;;;9.93;4.93;;;;;13.70;100279.00;;;;10523587;28;20184;-78
2022/04/21 22:19:55;;;;;;;8.00;4.80;;;;;13.80;100287.00;;;;10516794;28;20189;-79
2022/04/21 22:24:56;;;;;;;5.80;4.50;;;;;13.80;100291.00;;;;10519499;28;20208;-77
2022/04/21 22:29:58;;;;;;;9.33;5.10;;;;;13.80;100274.00;;;;10538258;28;20192;-79
2022/04/21 22:35:00;;;;;;;6.97;4.83;;;;;13.80;100276.00;;;;10572521;28;20275;-78
2022/04/21 22:40:03;;;;;;;8.70;5.00;;;;;13.80;100282.00;;;;10522446;28;20303;-78
2022/04/21 22:45:08;;;;;;;9.70;4.80;;;;;13.80;100279.00;;;;10521145;28;20212;-78
2022/04/21 22:50:11;;;;;;;10.53;4.60;;;;;13.80;100281.00;;;;10538963;28;20234;-79
2022/04/21 22:55:13;;;;;;;8.20;5.77;;;;;13.80;100281.00;;;;10538386;28;20261;-78
2022/04/21 23:00:15;;;;;;;10.33;5.40;;;;;13.80;100280.00;;;;10555509;28;20281;-78
2022/04/21 23:05:17;;;;;;;8.50;4.97;;;;;13.80;100273.00;;;;10538619;28;20570;-78
2022/04/21 23:15:57;;;;;;;7.33;5.10;;;;;13.70;100270.00;;;;10471735;28;20188;-79
2022/04/21 23:21:01;;;;;;;8.73;4.67;;;;;13.60;100265.00;;;;10537088;28;20196;-78
2022/04/21 23:26:05;;;;;;;5.33;4.30;;;;;13.50;100267.00;;;;10550969;28;20671;-78
2022/04/21 23:31:07;;;;;;;7.47;4.67;;;;;13.30;100278.00;;;;10542423;28;20201;-78
2022/04/21 23:36:09;;;;;;;8.80;5.03;;;;;13.20;100270.00;;;;10493653;28;20197;-79
2022/04/21 23:41:11;;;;;;;7.93;4.73;;;;;13.00;100268.00;;;;10514916;27;20260;-79
2022/04/21 23:46:14;;;;;;;7.13;4.73;;;;;12.90;100263.00;;;;10628521;27;20264;-78
2022/04/21 23:51:16;;;;;;;7.77;4.77;;;;;12.70;100273.00;;;;10539533;27;20282;-79
2022/04/21 23:56:18;;;;;;;5.97;4.50;;;;;12.60;100265.00;;;;10554485;27;20660;-78
